sensor_id;sensor_type;location;lat;lon;timestamp;P1;durP1;ratioP1;P2;durP2;ratioP2
739;SDS011;354;42.694;23.336;2022-11-04T00:01:36;16.40;;;14.70;;
739;SDS011;354;42.694;23.336;2022-11-04T00:04:03;16.30;;;14.47;;
739;SDS011;354;42.694;23.336;2022-11-04T00:06:28;18.37;;;13.87;;
739;SDS011;354;42.694;23.336;2022-11-04T00:08:56;21.77;;;15.07;;
739;SDS011;354;42.694;23.336;2022-11-04T00:11:22;20.20;;;15.07;;
739;SDS011;354;42.694;23.336;2022-11-04T00:14:08;20.30;;;15.37;;
739;SDS011;354;42.694;23.336;2022-11-04T00:16:34;18.83;;;15.40;;
739;SDS011;354;42.694;23.336;2022-11-04T00:19:18;17.40;;;14.77;;
739;SDS011;354;42.694;23.336;2022-11-04T00:21:44;16.40;;;14.77;;
739;SDS011;354;42.694;23.336;2022-11-04T00:24:28;24.13;;;16.37;;
739;SDS011;354;42.694;23.336;2022-11-04T00:27:09;22.50;;;15.97;;
739;SDS011;354;42.694;23.336;2022-11-04T00:29:55;22.47;;;15.00;;
739;SDS011;354;42.694;23.336;2022-11-04T00:32:21;20.63;;;14.73;;
739;SDS011;354;42.694;23.336;2022-11-04T00:35:05;17.93;;;15.00;;
739;SDS011;354;42.694;23.336;2022-11-04T00:37:31;21.07;;;16.30;;
739;SDS011;354;42.694;23.336;2022-11-04T00:39:56;21.23;;;16.33;;
739;SDS011;354;42.694;23.336;2022-11-04T00:42:22;24.27;;;17.00;;
739;SDS011;354;42.694;23.336;2022-11-04T00:44:47;19.27;;;16.40;;
739;SDS011;354;42.694;23.336;2022-11-04T00:47:12;20.07;;;16.23;;
739;SDS011;354;42.694;23.336;2022-11-04T00:49:38;20.70;;;16.17;;
739;SDS011;354;42.694;23.336;2022-11-04T00:52:03;19.33;;;15.20;;
739;SDS011;354;42.694;23.336;2022-11-04T00:54:29;19.17;;;16.20;;
739;SDS011;354;42.694;23.336;2022-11-04T00:56:54;20.87;;;15.23;;
739;SDS011;354;42.694;23.336;2022-11-04T00:59:19;22.20;;;16.17;;
739;SDS011;354;42.694;23.336;2022-11-04T01:01:45;26.93;;;16.83;;
739;SDS011;354;42.694;23.336;2022-11-04T01:04:10;24.63;;;16.37;;
739;SDS011;354;42.694;23.336;2022-11-04T01:06:36;22.33;;;17.00;;
739;SDS011;354;42.694;23.336;2022-11-04T01:09:04;22.00;;;16.37;;
739;SDS011;354;42.694;23.336;2022-11-04T01:11:32;21.77;;;17.27;;
739;SDS011;354;42.694;23.336;2022-11-04T01:13:58;20.07;;;17.80;;
739;SDS011;354;42.694;23.336;2022-11-04T01:16:24;26.40;;;17.67;;
739;SDS011;354;42.694;23.336;2022-11-04T01:18:51;20.90;;;16.17;;
739;SDS011;354;42.694;23.336;2022-11-04T01:21:16;24.83;;;18.60;;
739;SDS011;354;42.694;23.336;2022-11-04T01:23:42;22.23;;;17.67;;
739;SDS011;354;42.694;23.336;2022-11-04T01:26:09;19.20;;;15.63;;
739;SDS011;354;42.694;23.336;2022-11-04T01:28:37;21.93;;;16.82;;
739;SDS011;354;42.694;23.336;2022-11-04T01:31:06;22.27;;;16.03;;
739;SDS011;354;42.694;23.336;2022-11-04T01:33:34;24.53;;;17.17;;
739;SDS011;354;42.694;23.336;2022-11-04T01:36:00;23.07;;;16.73;;
739;SDS011;354;42.694;23.336;2022-11-04T01:38:26;25.50;;;18.70;;
739;SDS011;354;42.694;23.336;2022-11-04T01:40:52;24.37;;;17.63;;
739;SDS011;354;42.694;23.336;2022-11-04T01:43:19;22.83;;;17.43;;
739;SDS011;354;42.694;23.336;2022-11-04T01:45:51;21.10;;;16.37;;
739;SDS011;354;42.694;23.336;2022-11-04T01:48:24;28.33;;;18.57;;
739;SDS011;354;42.694;23.336;2022-11-04T01:50:55;22.60;;;18.03;;
739;SDS011;354;42.694;23.336;2022-11-04T01:53:22;22.50;;;16.53;;
739;SDS011;354;42.694;23.336;2022-11-04T01:55:55;24.30;;;18.50;;
739;SDS011;354;42.694;23.336;2022-11-04T01:58:25;22.13;;;16.97;;
739;SDS011;354;42.694;23.336;2022-11-04T02:00:53;22.47;;;19.50;;
739;SDS011;354;42.694;23.336;2022-11-04T02:03:19;27.10;;;17.83;;
739;SDS011;354;42.694;23.336;2022-11-04T02:05:49;23.27;;;20.00;;
739;SDS011;354;42.694;23.336;2022-11-04T02:08:15;32.30;;;20.40;;
739;SDS011;354;42.694;23.336;2022-11-04T02:10:47;22.47;;;18.27;;
739;SDS011;354;42.694;23.336;2022-11-04T02:13:16;24.27;;;19.87;;
739;SDS011;354;42.694;23.336;2022-11-04T02:15:54;23.57;;;20.03;;
739;SDS011;354;42.694;23.336;2022-11-04T02:21:10;24.50;;;21.13;;
739;SDS011;354;42.694;23.336;2022-11-04T02:24:17;23.53;;;19.90;;
739;SDS011;354;42.694;23.336;2022-11-04T02:45:25;21.30;;;18.97;;
739;SDS011;354;42.694;23.336;2022-11-04T02:48:02;23.37;;;19.77;;
739;SDS011;354;42.694;23.336;2022-11-04T02:50:40;22.97;;;20.27;;
739;SDS011;354;42.694;23.336;2022-11-04T02:53:19;20.87;;;18.67;;
739;SDS011;354;42.694;23.336;2022-11-04T02:55:53;23.63;;;19.90;;
739;SDS011;354;42.694;23.336;2022-11-04T02:58:25;26.17;;;19.23;;
739;SDS011;354;42.694;23.336;2022-11-04T03:00:57;23.90;;;18.80;;
739;SDS011;354;42.694;23.336;2022-11-04T03:03:26;23.10;;;19.10;;
739;SDS011;354;42.694;23.336;2022-11-04T03:05:55;26.43;;;19.87;;
739;SDS011;354;42.694;23.336;2022-11-04T03:08:29;30.60;;;21.70;;
739;SDS011;354;42.694;23.336;2022-11-04T03:10:58;32.00;;;23.87;;
739;SDS011;354;42.694;23.336;2022-11-04T03:13:39;31.10;;;23.33;;
739;SDS011;354;42.694;23.336;2022-11-04T03:16:11;29.83;;;25.50;;
739;SDS011;354;42.694;23.336;2022-11-04T03:21:38;26.10;;;21.73;;
739;SDS011;354;42.694;23.336;2022-11-04T03:24:31;28.67;;;23.37;;
739;SDS011;354;42.694;23.336;2022-11-04T03:26:58;34.80;;;26.87;;
739;SDS011;354;42.694;23.336;2022-11-04T03:34:26;29.60;;;24.17;;
739;SDS011;354;42.694;23.336;2022-11-04T03:36:51;29.17;;;24.10;;
739;SDS011;354;42.694;23.336;2022-11-04T03:39:17;24.77;;;20.70;;
739;SDS011;354;42.694;23.336;2022-11-04T03:41:44;26.97;;;21.37;;
739;SDS011;354;42.694;23.336;2022-11-04T03:44:14;24.57;;;21.80;;
739;SDS011;354;42.694;23.336;2022-11-04T03:46:39;26.50;;;21.33;;
739;SDS011;354;42.694;23.336;2022-11-04T03:49:04;24.87;;;21.63;;
739;SDS011;354;42.694;23.336;2022-11-04T03:51:32;28.73;;;22.50;;
739;SDS011;354;42.694;23.336;2022-11-04T03:53:57;25.50;;;21.03;;
739;SDS011;354;42.694;23.336;2022-11-04T03:59:09;27.50;;;21.27;;
739;SDS011;354;42.694;23.336;2022-11-04T04:01:58;27.53;;;21.33;;
739;SDS011;354;42.694;23.336;2022-11-04T04:05:20;26.73;;;19.83;;
739;SDS011;354;42.694;23.336;2022-11-04T04:07:43;25.53;;;20.77;;
739;SDS011;354;42.694;23.336;2022-11-04T04:10:15;24.33;;;21.80;;
739;SDS011;354;42.694;23.336;2022-11-04T04:15:52;25.63;;;21.10;;
739;SDS011;354;42.694;23.336;2022-11-04T04:18:35;29.37;;;20.23;;
739;SDS011;354;42.694;23.336;2022-11-04T04:21:07;23.63;;;20.47;;
739;SDS011;354;42.694;23.336;2022-11-04T04:23:36;25.33;;;20.77;;
739;SDS011;354;42.694;23.336;2022-11-04T04:26:22;26.60;;;20.83;;
739;SDS011;354;42.694;23.336;2022-11-04T04:29:07;29.97;;;19.90;;
739;SDS011;354;42.694;23.336;2022-11-04T04:31:35;25.43;;;20.60;;
739;SDS011;354;42.694;23.336;2022-11-04T04:34:18;33.67;;;22.77;;
739;SDS011;354;42.694;23.336;2022-11-04T04:36:51;29.13;;;21.57;;
739;SDS011;354;42.694;23.336;2022-11-04T04:39:24;26.17;;;22.00;;
739;SDS011;354;42.694;23.336;2022-11-04T04:42:14;26.77;;;21.20;;
739;SDS011;354;42.694;23.336;2022-11-04T04:44:58;28.60;;;22.30;;
739;SDS011;354;42.694;23.336;2022-11-04T04:47:33;28.87;;;22.00;;
739;SDS011;354;42.694;23.336;2022-11-04T04:50:05;38.83;;;28.90;;
739;SDS011;354;42.694;23.336;2022-11-04T04:52:39;28.77;;;23.90;;
739;SDS011;354;42.694;23.336;2022-11-04T04:55:06;45.43;;;26.77;;
739;SDS011;354;42.694;23.336;2022-11-04T04:57:33;38.53;;;25.37;;
739;SDS011;354;42.694;23.336;2022-11-04T04:59:58;36.17;;;26.60;;
739;SDS011;354;42.694;23.336;2022-11-04T05:02:23;28.83;;;25.23;;
739;SDS011;354;42.694;23.336;2022-11-04T05:04:49;28.17;;;24.60;;
739;SDS011;354;42.694;23.336;2022-11-04T05:07:14;30.47;;;25.87;;
739;SDS011;354;42.694;23.336;2022-11-04T05:09:39;38.80;;;29.17;;
739;SDS011;354;42.694;23.336;2022-11-04T05:12:05;32.43;;;24.43;;
739;SDS011;354;42.694;23.336;2022-11-04T05:14:30;32.80;;;25.53;;
739;SDS011;354;42.694;23.336;2022-11-04T05:16:56;29.53;;;26.20;;
739;SDS011;354;42.694;23.336;2022-11-04T05:19:21;35.40;;;26.17;;
739;SDS011;354;42.694;23.336;2022-11-04T05:21:47;29.03;;;25.40;;
739;SDS011;354;42.694;23.336;2022-11-04T05:24:12;36.47;;;26.30;;
739;SDS011;354;42.694;23.336;2022-11-04T05:26:38;35.03;;;26.17;;
739;SDS011;354;42.694;23.336;2022-11-04T05:29:04;35.47;;;25.67;;
739;SDS011;354;42.694;23.336;2022-11-04T05:31:29;31.67;;;25.50;;
739;SDS011;354;42.694;23.336;2022-11-04T05:33:55;29.80;;;26.13;;
739;SDS011;354;42.694;23.336;2022-11-04T05:36:22;33.73;;;26.43;;
739;SDS011;354;42.694;23.336;2022-11-04T05:38:51;37.77;;;28.90;;
739;SDS011;354;42.694;23.336;2022-11-04T05:41:19;31.37;;;25.00;;
739;SDS011;354;42.694;23.336;2022-11-04T05:43:51;32.70;;;25.20;;
739;SDS011;354;42.694;23.336;2022-11-04T05:46:17;37.53;;;28.47;;
739;SDS011;354;42.694;23.336;2022-11-04T05:48:42;36.87;;;26.23;;
739;SDS011;354;42.694;23.336;2022-11-04T05:51:11;38.47;;;26.30;;
739;SDS011;354;42.694;23.336;2022-11-04T05:53:40;63.73;;;43.30;;
739;SDS011;354;42.694;23.336;2022-11-04T05:56:06;36.70;;;27.67;;
739;SDS011;354;42.694;23.336;2022-11-04T05:58:32;36.70;;;26.60;;
739;SDS011;354;42.694;23.336;2022-11-04T06:01:10;29.97;;;25.37;;
739;SDS011;354;42.694;23.336;2022-11-04T06:03:48;33.77;;;26.27;;
739;SDS011;354;42.694;23.336;2022-11-04T06:06:14;37.00;;;26.30;;
739;SDS011;354;42.694;23.336;2022-11-04T06:08:39;34.37;;;26.70;;
739;SDS011;354;42.694;23.336;2022-11-04T06:11:05;34.73;;;25.77;;
739;SDS011;354;42.694;23.336;2022-11-04T06:13:30;33.30;;;25.27;;
739;SDS011;354;42.694;23.336;2022-11-04T06:15:55;34.30;;;25.10;;
739;SDS011;354;42.694;23.336;2022-11-04T06:18:21;35.23;;;26.37;;
739;SDS011;354;42.694;23.336;2022-11-04T06:20:46;35.03;;;27.27;;
739;SDS011;354;42.694;23.336;2022-11-04T06:23:11;35.13;;;26.83;;
739;SDS011;354;42.694;23.336;2022-11-04T06:25:37;34.37;;;26.67;;
739;SDS011;354;42.694;23.336;2022-11-04T06:28:02;36.07;;;27.20;;
739;SDS011;354;42.694;23.336;2022-11-04T06:30:28;36.53;;;28.00;;
739;SDS011;354;42.694;23.336;2022-11-04T06:32:53;45.23;;;32.37;;
739;SDS011;354;42.694;23.336;2022-11-04T06:35:18;42.40;;;32.00;;
739;SDS011;354;42.694;23.336;2022-11-04T06:37:44;43.50;;;32.23;;
739;SDS011;354;42.694;23.336;2022-11-04T06:40:09;48.27;;;33.70;;
739;SDS011;354;42.694;23.336;2022-11-04T06:42:35;36.00;;;27.17;;
739;SDS011;354;42.694;23.336;2022-11-04T06:45:01;50.93;;;43.30;;
739;SDS011;354;42.694;23.336;2022-11-04T06:47:26;53.57;;;33.80;;
739;SDS011;354;42.694;23.336;2022-11-04T06:49:51;41.90;;;26.83;;
739;SDS011;354;42.694;23.336;2022-11-04T06:52:17;40.17;;;28.30;;
739;SDS011;354;42.694;23.336;2022-11-04T06:54:42;42.50;;;28.67;;
739;SDS011;354;42.694;23.336;2022-11-04T06:57:09;37.83;;;27.70;;
739;SDS011;354;42.694;23.336;2022-11-04T06:59:35;44.00;;;29.83;;
739;SDS011;354;42.694;23.336;2022-11-04T07:02:00;39.30;;;27.57;;
739;SDS011;354;42.694;23.336;2022-11-04T07:04:26;38.83;;;27.30;;
739;SDS011;354;42.694;23.336;2022-11-04T07:06:51;42.57;;;28.90;;
739;SDS011;354;42.694;23.336;2022-11-04T07:09:17;40.63;;;27.80;;
739;SDS011;354;42.694;23.336;2022-11-04T07:11:42;44.30;;;32.33;;
739;SDS011;354;42.694;23.336;2022-11-04T07:14:09;47.90;;;30.57;;
739;SDS011;354;42.694;23.336;2022-11-04T07:16:34;41.37;;;30.07;;
739;SDS011;354;42.694;23.336;2022-11-04T07:19:00;56.20;;;40.27;;
739;SDS011;354;42.694;23.336;2022-11-04T07:21:25;37.90;;;27.93;;
739;SDS011;354;42.694;23.336;2022-11-04T07:23:51;39.70;;;27.07;;
739;SDS011;354;42.694;23.336;2022-11-04T07:26:17;39.67;;;26.57;;
739;SDS011;354;42.694;23.336;2022-11-04T07:28:42;35.53;;;27.27;;
739;SDS011;354;42.694;23.336;2022-11-04T07:31:09;39.13;;;26.73;;
739;SDS011;354;42.694;23.336;2022-11-04T07:33:36;36.30;;;28.93;;
739;SDS011;354;42.694;23.336;2022-11-04T07:36:05;38.10;;;28.63;;
739;SDS011;354;42.694;23.336;2022-11-04T07:38:32;34.77;;;26.60;;
739;SDS011;354;42.694;23.336;2022-11-04T07:40:58;35.60;;;27.83;;
739;SDS011;354;42.694;23.336;2022-11-04T07:43:24;38.00;;;27.17;;
739;SDS011;354;42.694;23.336;2022-11-04T07:46:03;37.13;;;27.47;;
739;SDS011;354;42.694;23.336;2022-11-04T07:48:34;37.83;;;28.20;;
739;SDS011;354;42.694;23.336;2022-11-04T07:51:00;39.33;;;30.90;;
739;SDS011;354;42.694;23.336;2022-11-04T07:53:28;34.43;;;25.10;;
739;SDS011;354;42.694;23.336;2022-11-04T07:55:54;35.07;;;25.03;;
739;SDS011;354;42.694;23.336;2022-11-04T07:58:19;34.47;;;27.50;;
739;SDS011;354;42.694;23.336;2022-11-04T08:00:45;33.93;;;26.30;;
739;SDS011;354;42.694;23.336;2022-11-04T08:03:11;44.87;;;29.93;;
739;SDS011;354;42.694;23.336;2022-11-04T08:05:37;36.93;;;25.07;;
739;SDS011;354;42.694;23.336;2022-11-04T08:08:02;33.70;;;26.57;;
739;SDS011;354;42.694;23.336;2022-11-04T08:10:28;33.40;;;25.03;;
739;SDS011;354;42.694;23.336;2022-11-04T08:12:54;32.13;;;24.10;;
739;SDS011;354;42.694;23.336;2022-11-04T08:15:19;43.90;;;30.37;;
739;SDS011;354;42.694;23.336;2022-11-04T08:17:45;31.33;;;23.37;;
739;SDS011;354;42.694;23.336;2022-11-04T08:20:10;36.10;;;26.67;;
739;SDS011;354;42.694;23.336;2022-11-04T08:22:36;33.27;;;26.87;;
739;SDS011;354;42.694;23.336;2022-11-04T08:25:02;36.73;;;26.70;;
739;SDS011;354;42.694;23.336;2022-11-04T08:27:28;37.27;;;27.47;;
739;SDS011;354;42.694;23.336;2022-11-04T08:29:53;39.60;;;29.07;;
739;SDS011;354;42.694;23.336;2022-11-04T08:32:18;32.80;;;24.87;;
739;SDS011;354;42.694;23.336;2022-11-04T08:34:44;30.20;;;23.93;;
739;SDS011;354;42.694;23.336;2022-11-04T08:37:12;33.10;;;24.80;;
739;SDS011;354;42.694;23.336;2022-11-04T08:39:39;32.67;;;24.03;;
739;SDS011;354;42.694;23.336;2022-11-04T08:42:05;34.47;;;24.53;;
739;SDS011;354;42.694;23.336;2022-11-04T08:44:31;35.53;;;25.13;;
739;SDS011;354;42.694;23.336;2022-11-04T08:46:58;38.57;;;26.80;;
739;SDS011;354;42.694;23.336;2022-11-04T08:49:23;38.20;;;28.70;;
739;SDS011;354;42.694;23.336;2022-11-04T08:51:49;37.07;;;27.10;;
739;SDS011;354;42.694;23.336;2022-11-04T08:54:20;34.27;;;24.30;;
739;SDS011;354;42.694;23.336;2022-11-04T08:56:46;31.50;;;23.30;;
739;SDS011;354;42.694;23.336;2022-11-04T08:59:11;36.17;;;24.63;;
739;SDS011;354;42.694;23.336;2022-11-04T09:01:37;35.73;;;24.83;;
739;SDS011;354;42.694;23.336;2022-11-04T09:04:03;37.10;;;25.70;;
739;SDS011;354;42.694;23.336;2022-11-04T09:06:30;37.83;;;27.10;;
739;SDS011;354;42.694;23.336;2022-11-04T09:08:59;33.47;;;24.93;;
739;SDS011;354;42.694;23.336;2022-11-04T09:11:27;34.03;;;24.97;;
739;SDS011;354;42.694;23.336;2022-11-04T09:13:53;32.17;;;24.83;;
739;SDS011;354;42.694;23.336;2022-11-04T09:16:19;38.33;;;26.17;;
739;SDS011;354;42.694;23.336;2022-11-04T09:18:44;31.73;;;24.57;;
739;SDS011;354;42.694;23.336;2022-11-04T09:21:10;33.37;;;23.43;;
739;SDS011;354;42.694;23.336;2022-11-04T09:23:36;32.70;;;24.13;;
739;SDS011;354;42.694;23.336;2022-11-04T09:26:06;34.77;;;24.90;;
739;SDS011;354;42.694;23.336;2022-11-04T09:28:34;39.03;;;29.30;;
739;SDS011;354;42.694;23.336;2022-11-04T09:31:03;34.87;;;24.40;;
739;SDS011;354;42.694;23.336;2022-11-04T09:33:30;37.97;;;25.80;;
739;SDS011;354;42.694;23.336;2022-11-04T09:35:57;32.47;;;23.40;;
739;SDS011;354;42.694;23.336;2022-11-04T09:38:23;37.83;;;28.47;;
739;SDS011;354;42.694;23.336;2022-11-04T09:40:49;38.80;;;27.57;;
739;SDS011;354;42.694;23.336;2022-11-04T09:45:51;36.17;;;24.30;;
739;SDS011;354;42.694;23.336;2022-11-04T09:50:51;31.77;;;23.87;;
739;SDS011;354;42.694;23.336;2022-11-04T09:53:41;34.03;;;24.20;;
739;SDS011;354;42.694;23.336;2022-11-04T09:56:21;38.13;;;29.53;;
739;SDS011;354;42.694;23.336;2022-11-04T09:59:10;36.07;;;28.30;;
739;SDS011;354;42.694;23.336;2022-11-04T10:09:49;32.43;;;23.57;;
739;SDS011;354;42.694;23.336;2022-11-04T10:24:03;23.87;;;21.23;;
739;SDS011;354;42.694;23.336;2022-11-04T10:26:43;22.17;;;18.07;;
739;SDS011;354;42.694;23.336;2022-11-04T10:29:48;32.33;;;22.50;;
739;SDS011;354;42.694;23.336;2022-11-04T10:35:43;22.47;;;18.00;;
739;SDS011;354;42.694;23.336;2022-11-04T10:38:49;20.90;;;16.10;;
739;SDS011;354;42.694;23.336;2022-11-04T10:41:00;17.43;;;15.50;;
739;SDS011;354;42.694;23.336;2022-11-04T10:43:34;22.40;;;15.90;;
739;SDS011;354;42.694;23.336;2022-11-04T10:46:17;22.37;;;17.00;;
739;SDS011;354;42.694;23.336;2022-11-04T10:49:02;22.80;;;17.00;;
739;SDS011;354;42.694;23.336;2022-11-04T10:51:29;19.80;;;16.77;;
739;SDS011;354;42.694;23.336;2022-11-04T10:53:56;23.93;;;18.43;;
739;SDS011;354;42.694;23.336;2022-11-04T11:01:50;19.33;;;17.23;;
739;SDS011;354;42.694;23.336;2022-11-04T11:04:23;24.40;;;17.67;;
739;SDS011;354;42.694;23.336;2022-11-04T11:06:54;24.93;;;18.13;;
739;SDS011;354;42.694;23.336;2022-11-04T11:09:22;26.50;;;18.23;;
739;SDS011;354;42.694;23.336;2022-11-04T11:21:13;26.87;;;19.77;;
739;SDS011;354;42.694;23.336;2022-11-04T11:26:54;25.37;;;19.67;;
739;SDS011;354;42.694;23.336;2022-11-04T11:32:56;25.17;;;20.20;;
739;SDS011;354;42.694;23.336;2022-11-04T11:50:21;22.80;;;16.50;;
739;SDS011;354;42.694;23.336;2022-11-04T11:52:50;24.20;;;17.60;;
739;SDS011;354;42.694;23.336;2022-11-04T12:06:53;20.00;;;16.20;;
739;SDS011;354;42.694;23.336;2022-11-04T12:12:54;22.00;;;14.27;;
739;SDS011;354;42.694;23.336;2022-11-04T12:21:12;18.37;;;15.67;;
739;SDS011;354;42.694;23.336;2022-11-04T12:26:55;19.10;;;14.33;;
739;SDS011;354;42.694;23.336;2022-11-04T12:35:41;22.40;;;14.80;;
739;SDS011;354;42.694;23.336;2022-11-04T12:59:43;23.17;;;18.27;;
739;SDS011;354;42.694;23.336;2022-11-04T13:02:14;23.80;;;17.75;;
739;SDS011;354;42.694;23.336;2022-11-04T13:05:21;21.57;;;18.97;;
739;SDS011;354;42.694;23.336;2022-11-04T13:07:45;31.27;;;19.77;;
739;SDS011;354;42.694;23.336;2022-11-04T13:10:19;21.30;;;17.40;;
739;SDS011;354;42.694;23.336;2022-11-04T13:12:49;24.90;;;17.97;;
739;SDS011;354;42.694;23.336;2022-11-04T13:15:23;23.67;;;18.35;;
739;SDS011;354;42.694;23.336;2022-11-04T13:17:54;26.80;;;19.10;;
739;SDS011;354;42.694;23.336;2022-11-04T13:23:01;26.97;;;18.07;;
739;SDS011;354;42.694;23.336;2022-11-04T13:25:38;22.00;;;17.83;;
739;SDS011;354;42.694;23.336;2022-11-04T13:28:10;22.27;;;16.93;;
739;SDS011;354;42.694;23.336;2022-11-04T13:38:18;21.73;;;16.07;;
739;SDS011;354;42.694;23.336;2022-11-04T13:43:46;20.40;;;17.53;;
739;SDS011;354;42.694;23.336;2022-11-04T13:46:17;23.83;;;16.50;;
739;SDS011;354;42.694;23.336;2022-11-04T13:59:42;21.77;;;17.33;;
739;SDS011;354;42.694;23.336;2022-11-04T14:02:47;22.73;;;17.23;;
739;SDS011;354;42.694;23.336;2022-11-04T14:18:26;21.73;;;17.07;;
739;SDS011;354;42.694;23.336;2022-11-04T14:21:11;24.40;;;17.90;;
739;SDS011;354;42.694;23.336;2022-11-04T14:23:39;29.10;;;18.47;;
739;SDS011;354;42.694;23.336;2022-11-04T14:26:27;20.83;;;16.77;;
739;SDS011;354;42.694;23.336;2022-11-04T14:29:06;24.00;;;19.30;;
739;SDS011;354;42.694;23.336;2022-11-04T14:31:41;26.97;;;18.30;;
739;SDS011;354;42.694;23.336;2022-11-04T14:34:29;20.60;;;17.40;;
739;SDS011;354;42.694;23.336;2022-11-04T14:36:58;24.37;;;17.83;;
739;SDS011;354;42.694;23.336;2022-11-04T14:39:31;25.10;;;18.13;;
739;SDS011;354;42.694;23.336;2022-11-04T14:42:03;22.87;;;17.63;;
739;SDS011;354;42.694;23.336;2022-11-04T14:47:17;21.80;;;17.23;;
739;SDS011;354;42.694;23.336;2022-11-04T14:52:20;22.40;;;16.63;;
739;SDS011;354;42.694;23.336;2022-11-04T14:57:28;24.17;;;18.47;;
739;SDS011;354;42.694;23.336;2022-11-04T14:59:55;27.77;;;19.10;;
739;SDS011;354;42.694;23.336;2022-11-04T15:02:21;26.20;;;20.43;;
739;SDS011;354;42.694;23.336;2022-11-04T15:04:56;27.43;;;17.90;;
739;SDS011;354;42.694;23.336;2022-11-04T15:07:25;27.93;;;17.97;;
739;SDS011;354;42.694;23.336;2022-11-04T15:09:51;27.90;;;21.13;;
739;SDS011;354;42.694;23.336;2022-11-04T15:12:17;24.70;;;18.37;;
739;SDS011;354;42.694;23.336;2022-11-04T15:15:10;23.27;;;19.07;;
739;SDS011;354;42.694;23.336;2022-11-04T15:18:07;32.20;;;20.03;;
739;SDS011;354;42.694;23.336;2022-11-04T15:20:38;26.10;;;19.23;;
739;SDS011;354;42.694;23.336;2022-11-04T15:23:11;25.07;;;17.83;;
739;SDS011;354;42.694;23.336;2022-11-04T15:25:43;24.97;;;18.40;;
739;SDS011;354;42.694;23.336;2022-11-04T15:28:23;31.53;;;19.43;;
739;SDS011;354;42.694;23.336;2022-11-04T15:30:55;30.03;;;19.90;;
739;SDS011;354;42.694;23.336;2022-11-04T15:33:22;30.80;;;27.43;;
739;SDS011;354;42.694;23.336;2022-11-04T15:35:49;21.90;;;19.23;;
739;SDS011;354;42.694;23.336;2022-11-04T15:38:16;23.73;;;19.43;;
739;SDS011;354;42.694;23.336;2022-11-04T15:40:42;28.80;;;20.23;;
739;SDS011;354;42.694;23.336;2022-11-04T15:43:09;28.57;;;21.70;;
739;SDS011;354;42.694;23.336;2022-11-04T15:45:36;27.77;;;20.53;;
739;SDS011;354;42.694;23.336;2022-11-04T15:51:18;27.00;;;19.87;;
739;SDS011;354;42.694;23.336;2022-11-04T15:53:51;33.23;;;20.30;;
739;SDS011;354;42.694;23.336;2022-11-04T15:56:21;24.50;;;20.37;;
739;SDS011;354;42.694;23.336;2022-11-04T15:58:50;28.67;;;21.70;;
739;SDS011;354;42.694;23.336;2022-11-04T16:01:17;28.07;;;21.93;;
739;SDS011;354;42.694;23.336;2022-11-04T16:03:50;26.57;;;21.17;;
739;SDS011;354;42.694;23.336;2022-11-04T16:06:36;25.60;;;20.03;;
739;SDS011;354;42.694;23.336;2022-11-04T16:11:38;34.47;;;22.47;;
739;SDS011;354;42.694;23.336;2022-11-04T16:14:13;24.70;;;20.93;;
739;SDS011;354;42.694;23.336;2022-11-04T16:16:45;30.87;;;21.07;;
739;SDS011;354;42.694;23.336;2022-11-04T16:19:20;28.57;;;21.60;;
739;SDS011;354;42.694;23.336;2022-11-04T16:21:48;26.53;;;21.33;;
739;SDS011;354;42.694;23.336;2022-11-04T16:24:24;27.77;;;21.53;;
739;SDS011;354;42.694;23.336;2022-11-04T16:26:55;30.17;;;23.53;;
739;SDS011;354;42.694;23.336;2022-11-04T16:29:28;27.40;;;22.27;;
739;SDS011;354;42.694;23.336;2022-11-04T16:32:06;25.73;;;21.57;;
739;SDS011;354;42.694;23.336;2022-11-04T16:34:51;28.90;;;21.93;;
739;SDS011;354;42.694;23.336;2022-11-04T16:37:20;27.80;;;21.97;;
739;SDS011;354;42.694;23.336;2022-11-04T16:39:45;28.80;;;21.93;;
739;SDS011;354;42.694;23.336;2022-11-04T16:42:11;28.17;;;21.97;;
739;SDS011;354;42.694;23.336;2022-11-04T16:44:38;29.23;;;22.20;;
739;SDS011;354;42.694;23.336;2022-11-04T16:47:04;32.73;;;23.97;;
739;SDS011;354;42.694;23.336;2022-11-04T16:49:29;29.20;;;22.87;;
739;SDS011;354;42.694;23.336;2022-11-04T16:52:00;26.30;;;20.93;;
739;SDS011;354;42.694;23.336;2022-11-04T16:54:27;28.13;;;21.57;;
739;SDS011;354;42.694;23.336;2022-11-04T16:56:53;30.77;;;20.90;;
739;SDS011;354;42.694;23.336;2022-11-04T16:59:19;34.47;;;23.50;;
739;SDS011;354;42.694;23.336;2022-11-04T17:01:45;29.80;;;22.40;;
739;SDS011;354;42.694;23.336;2022-11-04T17:04:10;30.23;;;23.13;;
739;SDS011;354;42.694;23.336;2022-11-04T17:06:36;32.77;;;22.50;;
739;SDS011;354;42.694;23.336;2022-11-04T17:09:02;29.90;;;23.03;;
739;SDS011;354;42.694;23.336;2022-11-04T17:11:31;35.10;;;24.63;;
739;SDS011;354;42.694;23.336;2022-11-04T17:13:56;28.20;;;23.43;;
739;SDS011;354;42.694;23.336;2022-11-04T17:16:22;26.23;;;21.90;;
739;SDS011;354;42.694;23.336;2022-11-04T17:18:48;22.43;;;19.50;;
739;SDS011;354;42.694;23.336;2022-11-04T17:21:14;26.10;;;21.90;;
739;SDS011;354;42.694;23.336;2022-11-04T17:23:42;24.07;;;19.83;;
739;SDS011;354;42.694;23.336;2022-11-04T17:26:11;29.60;;;24.57;;
739;SDS011;354;42.694;23.336;2022-11-04T17:28:37;27.33;;;20.73;;
739;SDS011;354;42.694;23.336;2022-11-04T17:31:02;32.53;;;25.20;;
739;SDS011;354;42.694;23.336;2022-11-04T17:33:28;32.00;;;23.37;;
739;SDS011;354;42.694;23.336;2022-11-04T17:35:53;28.83;;;21.17;;
739;SDS011;354;42.694;23.336;2022-11-04T17:38:19;29.63;;;20.80;;
739;SDS011;354;42.694;23.336;2022-11-04T17:40:44;41.87;;;28.87;;
739;SDS011;354;42.694;23.336;2022-11-04T17:43:29;31.77;;;21.97;;
739;SDS011;354;42.694;23.336;2022-11-04T17:46:13;36.90;;;24.37;;
739;SDS011;354;42.694;23.336;2022-11-04T17:48:58;26.80;;;21.73;;
739;SDS011;354;42.694;23.336;2022-11-04T17:51:24;27.40;;;22.43;;
739;SDS011;354;42.694;23.336;2022-11-04T17:53:50;28.73;;;23.20;;
739;SDS011;354;42.694;23.336;2022-11-04T17:56:19;33.80;;;26.00;;
739;SDS011;354;42.694;23.336;2022-11-04T17:58:46;29.83;;;21.63;;
739;SDS011;354;42.694;23.336;2022-11-04T18:01:13;27.83;;;22.50;;
739;SDS011;354;42.694;23.336;2022-11-04T18:03:39;26.50;;;20.07;;
739;SDS011;354;42.694;23.336;2022-11-04T18:06:05;25.33;;;21.53;;
739;SDS011;354;42.694;23.336;2022-11-04T18:08:31;35.20;;;22.83;;
739;SDS011;354;42.694;23.336;2022-11-04T18:11:00;26.80;;;19.67;;
739;SDS011;354;42.694;23.336;2022-11-04T18:13:27;31.53;;;22.97;;
739;SDS011;354;42.694;23.336;2022-11-04T18:15:53;29.83;;;22.70;;
739;SDS011;354;42.694;23.336;2022-11-04T18:18:19;24.20;;;18.50;;
739;SDS011;354;42.694;23.336;2022-11-04T18:20:44;22.60;;;19.23;;
739;SDS011;354;42.694;23.336;2022-11-04T18:23:10;26.63;;;21.13;;
739;SDS011;354;42.694;23.336;2022-11-04T18:25:39;24.97;;;19.53;;
739;SDS011;354;42.694;23.336;2022-11-04T18:28:07;26.20;;;20.47;;
739;SDS011;354;42.694;23.336;2022-11-04T18:30:33;25.77;;;20.17;;
739;SDS011;354;42.694;23.336;2022-11-04T18:32:59;26.47;;;21.30;;
739;SDS011;354;42.694;23.336;2022-11-04T18:35:24;29.63;;;22.27;;
739;SDS011;354;42.694;23.336;2022-11-04T18:37:49;27.33;;;21.50;;
739;SDS011;354;42.694;23.336;2022-11-04T18:40:15;29.13;;;21.27;;